createdAt,value
2023-05-16T00:00:38.074Z,99664.13
2023-05-16T00:03:06.210Z,99666.72
2023-05-16T00:05:36.044Z,99662.38
2023-05-16T00:08:03.636Z,99658.00
2023-05-16T00:10:31.184Z,99664.06
2023-05-16T00:12:58.760Z,99665.78
2023-05-16T00:15:26.340Z,99662.31
2023-05-16T00:17:58.474Z,99667.47
2023-05-16T00:20:28.015Z,99661.38
2023-05-16T00:23:00.913Z,99657.09
2023-05-16T00:25:28.632Z,99657.06
2023-05-16T00:27:56.327Z,99650.16
2023-05-16T00:30:24.029Z,99660.47
2023-05-16T00:32:52.884Z,99657.88
2023-05-16T00:35:20.446Z,99657.00
2023-05-16T00:37:50.972Z,99655.25
2023-05-16T00:40:20.011Z,99653.50
2023-05-16T00:42:47.622Z,99658.69
2023-05-16T00:45:15.316Z,99657.78
2023-05-16T00:47:44.188Z,99658.66
2023-05-16T00:50:12.130Z,99658.66
2023-05-16T00:52:39.912Z,99655.22
2023-05-16T00:55:10.321Z,99653.44
2023-05-16T00:57:39.691Z,99656.00
2023-05-16T01:00:10.569Z,99654.28
2023-05-16T01:02:38.842Z,99657.69
2023-05-16T01:05:08.387Z,99656.78
2023-05-16T01:07:36.501Z,99661.94
2023-05-16T01:10:07.227Z,99665.38
2023-05-16T01:12:46.493Z,99667.97
2023-05-16T01:15:18.634Z,99657.63
2023-05-16T01:17:54.583Z,99664.50
2023-05-16T01:20:34.038Z,99658.44
2023-05-16T01:23:08.680Z,99662.75
2023-05-16T01:25:56.854Z,99663.63
2023-05-16T01:28:26.670Z,99655.00
2023-05-16T01:30:54.372Z,99662.75
2023-05-16T01:33:21.958Z,99658.44
2023-05-16T01:35:59.779Z,99661.00
2023-05-16T01:38:33.324Z,99654.09
2023-05-16T01:41:05.787Z,99661.88
2023-05-16T01:43:42.925Z,99665.31
2023-05-16T01:46:13.570Z,99658.41
2023-05-16T01:48:50.575Z,99672.22
2023-05-16T01:51:19.442Z,99667.06
2023-05-16T01:53:47.437Z,99664.50
2023-05-16T01:56:18.001Z,99667.13
2023-05-16T01:58:49.219Z,99667.13
2023-05-16T02:01:16.873Z,99664.53
2023-05-16T02:03:44.543Z,99672.28
2023-05-16T02:06:12.160Z,99671.38
2023-05-16T02:12:45.984Z,99684.28
2023-05-16T02:15:15.511Z,99680.88
2023-05-16T02:17:43.223Z,99678.28
2023-05-16T02:20:11.902Z,99675.69
2023-05-16T02:22:40.194Z,99687.81
2023-05-16T02:25:08.567Z,99686.03
2023-05-16T02:27:36.167Z,99686.03
2023-05-16T02:30:04.698Z,99683.47
2023-05-16T02:32:33.857Z,99684.31
2023-05-16T02:35:01.470Z,99679.16
2023-05-16T02:37:29.487Z,99676.56
2023-05-16T02:39:57.743Z,99677.38
2023-05-16T02:42:27.966Z,99682.56
2023-05-16T02:44:55.520Z,99686.00
2023-05-16T02:47:23.164Z,99673.94
2023-05-16T02:49:52.763Z,99676.53
2023-05-16T02:52:20.910Z,99677.38
2023-05-16T02:54:56.105Z,99680.88
2023-05-16T02:57:32.142Z,99691.22
2023-05-16T03:00:00.166Z,99694.66
2023-05-16T03:02:27.814Z,99686.00
2023-05-16T03:04:56.778Z,99690.34
2023-05-16T03:07:24.508Z,99689.50
2023-05-16T03:09:52.420Z,99684.31
2023-05-16T03:12:20.061Z,99685.19
2023-05-16T03:14:47.594Z,99678.28
2023-05-16T03:17:15.178Z,99679.06
2023-05-16T03:19:42.737Z,99692.00
2023-05-16T03:22:11.837Z,99689.47
2023-05-16T03:24:43.667Z,99693.69
2023-05-16T03:27:12.465Z,99690.19
2023-05-16T03:29:40.006Z,99695.34
2023-05-16T03:32:07.794Z,99696.19
2023-05-16T03:34:35.489Z,99697.03
2023-05-16T03:37:03.152Z,99700.44
2023-05-16T03:39:32.233Z,99694.41
2023-05-16T03:41:59.780Z,99697.81
2023-05-16T03:44:27.399Z,99697.91
2023-05-16T03:46:55.957Z,99703.03
2023-05-16T03:49:28.099Z,99703.88
2023-05-16T03:51:55.686Z,99704.69
2023-05-16T03:54:23.333Z,99708.19
2023-05-16T03:56:52.189Z,99716.75
2023-05-16T03:59:19.790Z,99715.84
2023-05-16T04:01:47.625Z,99710.72
2023-05-16T04:04:15.274Z,99715.03
2023-05-16T04:06:43.071Z,99717.56
2023-05-16T04:09:10.713Z,99720.13
2023-05-16T04:11:38.688Z,99726.13
2023-05-16T04:14:07.784Z,99727.97
2023-05-16T04:16:35.553Z,99727.06
2023-05-16T04:19:04.053Z,99737.41
2023-05-16T04:21:31.746Z,99727.91
2023-05-16T04:23:59.270Z,99732.22
2023-05-16T04:26:27.545Z,99736.53
2023-05-16T04:28:55.143Z,99736.41
2023-05-16T04:31:26.374Z,99734.75
2023-05-16T04:33:54.055Z,99739.78
2023-05-16T04:36:22.060Z,99745.84
2023-05-16T04:38:49.581Z,99742.34
2023-05-16T04:41:17.297Z,99739.78
2023-05-16T04:43:45.611Z,99742.34
2023-05-16T04:46:13.511Z,99745.69
2023-05-16T04:48:42.647Z,99733.53
2023-05-16T04:51:10.199Z,99754.19
2023-05-16T04:53:37.702Z,99751.56
2023-05-16T04:56:06.050Z,99752.44
2023-05-16T04:58:33.555Z,99748.03
2023-05-16T05:01:01.848Z,99752.34
2023-05-16T05:03:29.513Z,99750.59
2023-05-16T05:05:58.350Z,99762.69
2023-05-16T05:08:26.931Z,99757.44
2023-05-16T05:10:54.519Z,99754.09
2023-05-16T05:13:22.160Z,99762.66
2023-05-16T05:15:50.345Z,99758.31
2023-05-16T05:18:18.272Z,99764.38
2023-05-16T05:20:45.923Z,99766.03
2023-05-16T05:23:14.779Z,99771.16
2023-05-16T05:25:42.327Z,99772.00
2023-05-16T05:28:09.827Z,99772.78
2023-05-16T05:30:37.752Z,99772.75
2023-05-16T05:33:05.377Z,99774.53
2023-05-16T05:35:33.970Z,99777.19
2023-05-16T05:38:01.900Z,99777.25
2023-05-16T05:40:30.959Z,99783.31
2023-05-16T05:42:58.497Z,99785.91
2023-05-16T05:45:26.285Z,99782.47
2023-05-16T05:47:54.126Z,99793.66
2023-05-16T05:50:21.677Z,99789.34
2023-05-16T05:52:49.317Z,99790.22
2023-05-16T05:55:16.861Z,99790.16
2023-05-16T05:57:45.877Z,99790.16
2023-05-16T06:00:14.189Z,99791.00
2023-05-16T06:02:41.959Z,99789.28
2023-05-16T06:05:10.515Z,99786.78
2023-05-16T06:07:38.140Z,99794.59
2023-05-16T06:10:08.442Z,99794.66
2023-05-16T06:12:36.235Z,99794.66
2023-05-16T06:15:05.685Z,99797.31
2023-05-16T06:17:33.228Z,99810.31
2023-05-16T06:20:00.938Z,99807.69
2023-05-16T06:22:28.515Z,99816.31
2023-05-16T06:24:56.066Z,99813.78
2023-05-16T06:27:23.580Z,99811.22
2023-05-16T06:29:51.078Z,99820.63
2023-05-16T06:32:20.078Z,99818.06
2023-05-16T06:34:47.586Z,99831.88
2023-05-16T06:37:15.098Z,99825.00
2023-05-16T06:39:42.681Z,99831.91
2023-05-16T06:42:10.995Z,99828.66
2023-05-16T06:44:38.764Z,99832.22
2023-05-16T06:47:06.570Z,99835.59
2023-05-16T06:49:35.913Z,99835.59
2023-05-16T06:52:03.606Z,99832.22
2023-05-16T06:54:32.146Z,99839.00
2023-05-16T06:56:59.769Z,99843.38
2023-05-16T06:59:28.219Z,99839.19
2023-05-16T07:01:55.960Z,99840.97
2023-05-16T07:04:23.766Z,99836.59
2023-05-16T07:06:53.077Z,99840.84
2023-05-16T07:09:21.751Z,99833.09
2023-05-16T07:11:49.368Z,99842.56
2023-05-16T07:14:16.966Z,99841.72
2023-05-16T07:16:44.572Z,99840.84
2023-05-16T07:19:12.253Z,99845.16
2023-05-16T07:21:40.078Z,99840.91
2023-05-16T07:24:09.145Z,99848.66
2023-05-16T07:26:36.728Z,99842.63
2023-05-16T07:29:04.445Z,99844.38
2023-05-16T07:31:32.205Z,99842.75
2023-05-16T07:33:59.784Z,99840.97
2023-05-16T07:36:27.475Z,99852.97
2023-05-16T07:38:55.103Z,99850.34
2023-05-16T07:41:25.510Z,99852.88
2023-05-16T07:43:53.157Z,99849.59
2023-05-16T07:46:20.947Z,99858.31
2023-05-16T07:48:48.653Z,99847.22
2023-05-16T07:51:16.333Z,99851.66
2023-05-16T07:53:43.966Z,99857.69
2023-05-16T07:56:12.817Z,99859.34
2023-05-16T07:58:42.605Z,99862.03
2023-05-16T08:01:10.217Z,99863.81
2023-05-16T08:03:38.093Z,99863.66
2023-05-16T08:06:06.467Z,99864.47
2023-05-16T08:08:34.101Z,99869.69
2023-05-16T08:11:01.814Z,99863.72
2023-05-16T08:13:29.449Z,99876.59
2023-05-16T08:15:58.455Z,99871.47
2023-05-16T08:18:26.130Z,99879.19
2023-05-16T08:20:53.750Z,99877.47
2023-05-16T08:23:21.342Z,99873.88
2023-05-16T08:25:49.045Z,99873.94
2023-05-16T08:28:16.658Z,99886.06
2023-05-16T08:30:46.428Z,99878.28
2023-05-16T08:33:17.310Z,99873.78
2023-05-16T08:35:46.227Z,99880.75
2023-05-16T08:38:13.780Z,99871.25
2023-05-16T08:40:42.700Z,99880.69
2023-05-16T08:43:10.539Z,99875.56
2023-05-16T08:45:38.470Z,99882.53
2023-05-16T08:48:10.104Z,99888.56
2023-05-16T08:50:39.575Z,99889.53
2023-05-16T08:53:09.109Z,99893.09
2023-05-16T08:55:37.649Z,99888.84
2023-05-16T08:58:05.629Z,99888.06
2023-05-16T09:00:33.590Z,99888.13
2023-05-16T09:03:01.535Z,99881.28
2023-05-16T09:05:31.086Z,99881.28
2023-05-16T09:08:00.442Z,99887.38
2023-05-16T09:10:28.041Z,99891.56
2023-05-16T09:12:55.688Z,99888.06
2023-05-16T09:15:23.316Z,99890.59
2023-05-16T09:17:51.568Z,99894.06
2023-05-16T09:20:21.832Z,99899.94
2023-05-16T09:22:53.909Z,99900.75
2023-05-16T09:27:55.790Z,99905.16
2023-05-16T09:30:25.003Z,99904.41
2023-05-16T09:32:54.290Z,99904.63
2023-05-16T09:35:35.174Z,99905.66
2023-05-16T09:38:15.370Z,99916.16
2023-05-16T09:40:44.524Z,99921.44
2023-05-16T09:43:16.952Z,99921.38
2023-05-16T09:45:48.744Z,99921.56
2023-05-16T09:48:18.046Z,99925.13
2023-05-16T09:50:52.224Z,99919.97
2023-05-16T09:53:27.022Z,99920.91
2023-05-16T09:56:02.990Z,99923.56
2023-05-16T09:58:31.769Z,99923.63
2023-05-16T10:01:00.547Z,99922.78
2023-05-16T10:03:29.218Z,99919.28
2023-05-16T10:05:57.462Z,99921.84
2023-05-16T10:08:27.153Z,99920.06
2023-05-16T10:10:56.656Z,99916.50
2023-05-16T10:13:30.085Z,99920.66
2023-05-16T10:15:58.349Z,99915.56
2023-05-16T10:18:30.987Z,99917.25
2023-05-16T10:21:03.267Z,99915.53
2023-05-16T10:23:32.413Z,99914.75
2023-05-16T10:26:04.544Z,99912.06
2023-05-16T10:28:33.781Z,99915.66
2023-05-16T10:31:02.685Z,99912.16
2023-05-16T10:33:30.254Z,99917.41
2023-05-16T10:35:58.716Z,99917.50
2023-05-16T10:38:27.705Z,99924.38
2023-05-16T10:40:56.717Z,99924.19
2023-05-16T10:43:26.579Z,99920.75
2023-05-16T10:48:57.887Z,99921.19
2023-05-16T10:51:36.920Z,99933.09
2023-05-16T10:54:10.137Z,99932.88
2023-05-16T10:56:38.297Z,99937.81
2023-05-16T10:59:05.984Z,99929.88
2023-05-16T11:01:35.612Z,99934.97
2023-05-16T11:04:10.252Z,99937.56
2023-05-16T11:06:52.355Z,99946.19
2023-05-16T11:09:23.359Z,99947.78
2023-05-16T11:12:00.191Z,99955.59
2023-05-16T11:14:30.296Z,99961.03
2023-05-16T11:17:03.403Z,99963.00
2023-05-16T11:19:35.708Z,99967.38
2023-05-16T11:22:11.961Z,99965.75
2023-05-16T11:24:40.680Z,99960.59
2023-05-16T11:27:08.813Z,99967.56
2023-05-16T11:29:37.391Z,99963.59
2023-05-16T11:32:06.278Z,99964.63
2023-05-16T11:34:39.563Z,99963.75
2023-05-16T11:37:07.502Z,99970.84
2023-05-16T11:39:35.242Z,99973.44
2023-05-16T11:42:03.407Z,99977.00
2023-05-16T11:44:31.003Z,99972.75
2023-05-16T11:47:01.800Z,99972.47
2023-05-16T11:49:30.057Z,99971.56
2023-05-16T11:51:59.041Z,99978.53
2023-05-16T11:54:26.872Z,99979.53
2023-05-16T11:56:58.037Z,99979.47
2023-05-16T11:59:26.434Z,99989.88
2023-05-16T12:01:54.019Z,99983.88
2023-05-16T12:04:22.328Z,99991.72
2023-05-16T12:07:02.124Z,99989.25
2023-05-16T12:09:29.753Z,99985.66
2023-05-16T12:11:57.704Z,99992.56
2023-05-16T12:14:26.674Z,99996.00
2023-05-16T12:16:54.936Z,100002.03
2023-05-16T12:19:23.227Z,100004.53
2023-05-16T12:21:54.231Z,99996.66
2023-05-16T12:24:23.179Z,100004.56
2023-05-16T12:26:54.349Z,100007.06
2023-05-16T12:29:25.019Z,100013.25
2023-05-16T12:31:54.576Z,100002.97
2023-05-16T12:34:23.146Z,100018.47
2023-05-16T12:36:54.693Z,100015.06
2023-05-16T12:39:24.025Z,100016.81
2023-05-16T12:41:51.827Z,100011.59
2023-05-16T12:44:20.565Z,100026.03
2023-05-16T12:46:51.321Z,100020.03
2023-05-16T12:49:21.304Z,100021.81
2023-05-16T12:51:53.010Z,100022.59
2023-05-16T12:54:22.843Z,100025.16
2023-05-16T12:56:52.225Z,100033.84
2023-05-16T12:59:20.189Z,100030.47
2023-05-16T13:01:47.868Z,100032.22
2023-05-16T13:04:19.173Z,100041.63
2023-05-16T13:06:58.647Z,100033.81
2023-05-16T13:09:32.153Z,100037.16
2023-05-16T13:12:01.997Z,100050.72
2023-05-16T13:14:29.805Z,100040.38
2023-05-16T13:16:57.541Z,100038.47
2023-05-16T13:19:25.365Z,100031.63
2023-05-16T13:21:53.245Z,100035.13
2023-05-16T13:24:20.850Z,100046.59
2023-05-16T13:26:48.468Z,100037.22
2023-05-16T13:29:17.381Z,100039.78
2023-05-16T13:31:45.189Z,100051.22
2023-05-16T13:34:12.798Z,100034.84
2023-05-16T13:36:53.159Z,100046.94
2023-05-16T13:39:22.888Z,100047.03
2023-05-16T13:41:50.689Z,100053.31
2023-05-16T13:44:20.264Z,100042.44
2023-05-16T13:46:47.978Z,100048.66
2023-05-16T13:49:15.550Z,100050.44
2023-05-16T13:51:43.133Z,100047.41
2023-05-16T13:54:11.023Z,100049.13
2023-05-16T13:56:38.840Z,100039.31
2023-05-16T13:59:07.568Z,100044.56
2023-05-16T14:01:37.415Z,100048.22
2023-05-16T14:04:05.641Z,100038.56
2023-05-16T14:06:33.556Z,100044.28
2023-05-16T14:09:01.249Z,100042.69
2023-05-16T14:11:29.737Z,100047.78
2023-05-16T14:13:57.755Z,100050.53
2023-05-16T14:16:25.824Z,100051.22
2023-05-16T14:18:54.920Z,100063.59
2023-05-16T14:21:22.573Z,100051.19
2023-05-16T14:23:50.175Z,100050.56
2023-05-16T14:26:19.048Z,100054.31
2023-05-16T14:28:46.621Z,100059.69
2023-05-16T14:31:16.325Z,100046.03
2023-05-16T14:33:44.056Z,100058.28
2023-05-16T14:36:13.067Z,100051.38
2023-05-16T14:38:40.699Z,100049.56
2023-05-16T14:41:08.354Z,100055.47
2023-05-16T14:43:35.988Z,100050.13
2023-05-16T14:46:03.625Z,100051.88
2023-05-16T14:48:31.298Z,100057.81
2023-05-16T14:50:58.913Z,100053.44
2023-05-16T14:53:27.861Z,100052.63
2023-05-16T14:55:55.645Z,100062.03
2023-05-16T14:58:23.717Z,100060.41
2023-05-16T15:00:51.709Z,100049.25
2023-05-16T15:03:19.354Z,100064.91
2023-05-16T15:05:47.078Z,100056.41
2023-05-16T15:08:14.822Z,100055.56
2023-05-16T15:10:43.823Z,100043.47
2023-05-16T15:13:11.755Z,100039.13
2023-05-16T15:15:39.436Z,100034.88
2023-05-16T15:18:07.123Z,100034.03
2023-05-16T15:20:34.872Z,100035.75
2023-05-16T15:23:02.525Z,100036.63
2023-05-16T15:25:30.406Z,100040.94
2023-05-16T15:27:59.626Z,100052.16
2023-05-16T15:30:27.201Z,100050.41
2023-05-16T15:32:54.924Z,100052.06
2023-05-16T15:35:22.570Z,100053.75
2023-05-16T15:40:22.279Z,100046.88
2023-05-16T15:42:52.660Z,100047.75
2023-05-16T15:45:22.059Z,100046.81
2023-05-16T15:47:49.864Z,100050.31
2023-05-16T15:50:17.492Z,100046.91
2023-05-16T15:52:45.478Z,100040.81
2023-05-16T15:55:13.104Z,100046.88
2023-05-16T15:57:40.648Z,100052.94
2023-05-16T16:00:09.667Z,100046.88
2023-05-16T16:02:42.361Z,100039.09
2023-05-16T16:05:10.409Z,100043.41
2023-05-16T16:07:38.015Z,100050.38
2023-05-16T16:10:06.328Z,100046.91
2023-05-16T16:12:34.198Z,100042.56
2023-05-16T16:15:02.369Z,100044.34
2023-05-16T16:17:30.292Z,100043.47
2023-05-16T16:19:59.324Z,100041.72
2023-05-16T16:22:26.900Z,100045.19
2023-05-16T16:24:54.575Z,100042.63
2023-05-16T16:27:22.218Z,100041.75
2023-05-16T16:29:49.856Z,100035.69
2023-05-16T16:32:17.439Z,100045.19
2023-05-16T16:34:45.046Z,100043.44
2023-05-16T16:37:14.046Z,100048.63
2023-05-16T16:39:41.636Z,100034.78
2023-05-16T16:42:09.469Z,100038.22
2023-05-16T16:44:37.156Z,100045.13
2023-05-16T16:47:05.034Z,100045.09
2023-05-16T16:49:32.897Z,100047.66
2023-05-16T16:52:00.493Z,100039.84
2023-05-16T16:54:29.465Z,100045.03
2023-05-16T16:56:57.099Z,100046.75
2023-05-16T16:59:24.894Z,100049.31
2023-05-16T17:01:52.568Z,100048.47
2023-05-16T17:04:20.206Z,100051.00
2023-05-16T17:06:48.819Z,100056.22
2023-05-16T17:09:19.453Z,100054.50
2023-05-16T17:11:48.551Z,100050.22
2023-05-16T17:14:16.204Z,100056.31
2023-05-16T17:16:43.843Z,100058.97
2023-05-16T17:19:11.842Z,100062.44
2023-05-16T17:21:40.491Z,100070.25
2023-05-16T17:24:08.676Z,100063.34
2023-05-16T17:26:36.572Z,100071.97
2023-05-16T17:29:05.870Z,100070.16
2023-05-16T17:31:33.606Z,100067.53
2023-05-16T17:34:01.232Z,100070.97
2023-05-16T17:36:28.899Z,100069.22
2023-05-16T17:38:56.507Z,100077.00
2023-05-16T17:41:24.138Z,100065.75
2023-05-16T17:43:51.685Z,100083.03
2023-05-16T17:46:21.462Z,100080.38
2023-05-16T17:48:49.196Z,100076.75
2023-05-16T17:51:16.903Z,100082.84
2023-05-16T17:53:45.428Z,100090.63
2023-05-16T17:56:13.933Z,100094.97
2023-05-16T17:58:41.762Z,100094.97
2023-05-16T18:01:10.132Z,100085.41
2023-05-16T18:03:39.374Z,100095.78
2023-05-16T18:06:07.324Z,100096.56
2023-05-16T18:08:35.049Z,100096.53
2023-05-16T18:11:02.674Z,100096.56
2023-05-16T18:13:31.042Z,100106.91
2023-05-16T18:15:58.655Z,100108.59
2023-05-16T18:18:27.110Z,100110.28
2023-05-16T18:20:56.166Z,100113.78
2023-05-16T18:23:24.664Z,100109.47
2023-05-16T18:25:52.640Z,100115.56
2023-05-16T18:28:21.372Z,100109.50
2023-05-16T18:30:50.059Z,100112.06
2023-05-16T18:33:18.039Z,100113.75
2023-05-16T18:35:45.683Z,100121.47
2023-05-16T18:38:28.456Z,100129.25
2023-05-16T18:41:00.135Z,100130.84
2023-05-16T18:43:27.748Z,100129.16
2023-05-16T18:45:55.358Z,100143.75
2023-05-16T18:48:23.081Z,100139.38
2023-05-16T18:50:51.257Z,100147.16
2023-05-16T18:53:20.646Z,100152.28
2023-05-16T18:55:48.846Z,100140.03
2023-05-16T18:58:16.541Z,100152.06
2023-05-16T19:00:44.515Z,100161.50
2023-05-16T19:03:13.245Z,100162.25
2023-05-16T19:05:41.064Z,100164.69
2023-05-16T19:08:08.680Z,100174.06
2023-05-16T19:10:41.394Z,100174.88
2023-05-16T19:13:09.228Z,100186.06
2023-05-16T19:15:37.780Z,100185.97
2023-05-16T19:18:06.281Z,100190.22
2023-05-16T19:20:35.065Z,100188.44
2023-05-16T19:23:03.184Z,100191.75
2023-05-16T19:25:32.040Z,100197.75
2023-05-16T19:28:00.988Z,100205.47
2023-05-16T19:30:28.847Z,100204.50
2023-05-16T19:32:56.687Z,100200.03
2023-05-16T19:35:24.473Z,100215.41
2023-05-16T19:37:52.140Z,100212.69
2023-05-16T19:40:19.802Z,100216.94
2023-05-16T19:42:47.458Z,100219.34
2023-05-16T19:45:16.388Z,100228.53
2023-05-16T19:47:44.387Z,100225.66
2023-05-16T19:50:12.280Z,100234.19
2023-05-16T19:52:39.974Z,100240.06
2023-05-16T19:55:09.390Z,100239.81
2023-05-16T19:57:37.414Z,100231.75
2023-05-16T20:00:06.223Z,100234.09
2023-05-16T20:02:43.122Z,100240.75
2023-05-16T20:05:11.861Z,100237.94
2023-05-16T20:07:40.265Z,100241.94
2023-05-16T20:10:09.618Z,100252.91
2023-05-16T20:12:37.905Z,100257.78
2023-05-16T20:15:08.202Z,100257.63
2023-05-16T20:17:35.886Z,100252.22
2023-05-16T20:20:05.610Z,100261.59
2023-05-16T20:22:33.624Z,100263.09
2023-05-16T20:25:01.264Z,100264.59
2023-05-16T20:27:30.443Z,100266.19
2023-05-16T20:29:59.374Z,100264.34
2023-05-16T20:32:27.128Z,100273.66
2023-05-16T20:34:54.985Z,100271.03
2023-05-16T20:37:26.564Z,100271.75
2023-05-16T20:39:54.787Z,100274.28
2023-05-16T20:42:25.768Z,100269.78
2023-05-16T20:44:53.430Z,100278.13
2023-05-16T20:47:21.465Z,100276.97
2023-05-16T20:49:49.195Z,100282.94
2023-05-16T20:52:16.861Z,100283.69
2023-05-16T20:54:45.808Z,100290.47
2023-05-16T20:57:13.908Z,100295.47
2023-05-16T20:59:41.510Z,100285.09
2023-05-16T21:02:10.209Z,100288.41
2023-05-16T21:04:37.999Z,100292.59
2023-05-16T21:07:08.115Z,100291.56
2023-05-16T21:09:37.650Z,100292.22
2023-05-16T21:12:07.190Z,100297.16
2023-05-16T21:14:34.831Z,100290.94
2023-05-16T21:17:02.436Z,100305.31
2023-05-16T21:19:33.934Z,100295.69
2023-05-16T21:22:03.797Z,100301.63
2023-05-16T21:24:35.055Z,100296.25
2023-05-16T21:27:03.661Z,100301.25
2023-05-16T21:29:32.744Z,100308.72
2023-05-16T21:32:00.489Z,100306.56
2023-05-16T21:34:28.244Z,100302.00
2023-05-16T21:36:57.000Z,100317.25
2023-05-16T21:39:24.687Z,100317.81
2023-05-16T21:41:52.470Z,100316.69
2023-05-16T21:44:20.777Z,100317.28
2023-05-16T21:46:49.743Z,100318.84
2023-05-16T21:49:17.413Z,100322.03
2023-05-16T21:51:45.159Z,100335.50
2023-05-16T21:54:12.823Z,100326.50
2023-05-16T21:56:40.474Z,100333.75
2023-05-16T21:59:08.135Z,100336.81
2023-05-16T22:01:36.197Z,100340.75
2023-05-16T22:04:05.592Z,100337.00
2023-05-16T22:06:33.257Z,100345.31
2023-05-16T22:09:01.660Z,100350.22
2023-05-16T22:11:29.322Z,100349.13
2023-05-16T22:13:57.008Z,100355.00
2023-05-16T22:16:24.665Z,100344.28
2023-05-16T22:18:52.525Z,100351.75
2023-05-16T22:21:21.744Z,100356.44
2023-05-16T22:23:49.491Z,100353.81
2023-05-16T22:26:17.144Z,100362.16
2023-05-16T22:28:44.776Z,100363.72
2023-05-16T22:31:12.349Z,100365.28
2023-05-16T22:33:40.113Z,100363.44
2023-05-16T22:36:08.068Z,100369.34
2023-05-16T22:38:36.970Z,100369.00
2023-05-16T22:41:04.749Z,100362.56
2023-05-16T22:43:32.344Z,100369.34
2023-05-16T22:46:02.196Z,100370.06
2023-05-16T22:48:30.952Z,100369.81
2023-05-16T22:50:59.515Z,100369.38
2023-05-16T22:53:27.264Z,100367.69
2023-05-16T22:55:56.453Z,100370.00
2023-05-16T22:58:24.135Z,100369.00
2023-05-16T23:00:51.753Z,100379.94
2023-05-16T23:03:19.696Z,100381.56
2023-05-16T23:05:47.341Z,100384.78
2023-05-16T23:08:14.927Z,100383.03
2023-05-16T23:10:42.548Z,100386.28
2023-05-16T23:13:11.560Z,100381.75
2023-05-16T23:15:39.216Z,100390.94
2023-05-16T23:18:07.114Z,100387.44
2023-05-16T23:20:34.814Z,100389.13
2023-05-16T23:23:02.457Z,100389.59
2023-05-16T23:25:30.358Z,100386.72
2023-05-16T23:27:58.301Z,100390.09
2023-05-16T23:30:27.431Z,100393.44
2023-05-16T23:32:55.071Z,100390.81
2023-05-16T23:35:23.023Z,100391.56
2023-05-16T23:37:50.706Z,100399.91
2023-05-16T23:40:18.713Z,100401.41
2023-05-16T23:42:46.291Z,100402.06
2023-05-16T23:45:13.938Z,100413.13
2023-05-16T23:47:42.907Z,100404.41
2023-05-16T23:50:11.262Z,100406.75
2023-05-16T23:52:38.863Z,100406.69
2023-05-16T23:55:09.582Z,100401.50
2023-05-16T23:57:37.211Z,100406.53
